createdAt,value
2022-08-09T05:40:16.750Z,24.6
2022-08-09T05:45:55.863Z,27.2
2022-08-09T05:51:42.332Z,28
2022-08-09T05:56:54.844Z,28.2
2022-08-09T06:02:19.041Z,28.3
2022-08-09T06:08:05.034Z,28.3
2022-08-09T06:13:20.540Z,28.1
2022-08-09T06:18:49.834Z,28
2022-08-09T06:24:20.419Z,28.1
2022-08-09T06:30:04.479Z,27.8
2022-08-09T06:35:21.704Z,27.9
2022-08-09T06:40:54.885Z,27.8
2022-08-09T06:46:39.871Z,27.8
2022-08-09T06:51:53.528Z,27.8
2022-08-09T06:57:25.851Z,28
2022-08-09T07:02:55.317Z,28.2
2022-08-09T07:08:24.943Z,28
2022-08-09T07:14:05.482Z,27.8
2022-08-09T07:19:26.128Z,28
2022-08-09T07:24:56.689Z,28.1
2022-08-09T07:30:32.415Z,28
2022-08-09T07:35:58.172Z,27.8
2022-08-09T07:41:32.897Z,27.9
2022-08-09T07:46:59.073Z,28.2
2022-08-09T07:52:29.672Z,28.3
2022-08-09T07:58:00.406Z,28.4
2022-08-09T08:03:31.010Z,28.6
2022-08-09T08:09:05.357Z,28.7
2022-08-09T08:14:32.262Z,28.7
2022-08-09T08:20:02.861Z,28.7
2022-08-09T08:25:43.984Z,28.4
2022-08-09T08:31:13.716Z,28.4
2022-08-09T08:36:34.572Z,28.4
2022-08-09T08:42:05.453Z,28.5
2022-08-09T08:47:38.554Z,28
2022-08-09T08:53:06.659Z,28.1
2022-08-09T08:58:37.601Z,28.5
2022-08-09T09:04:08.209Z,28.7
2022-08-09T09:09:58.148Z,28.9
2022-08-09T09:15:09.902Z,29.1
2022-08-09T09:20:39.602Z,29.2
2022-08-09T09:26:12.132Z,29.3
2022-08-09T09:32:06.752Z,29.3
2022-08-09T09:37:13.061Z,29.4
2022-08-09T09:42:45.983Z,29.4
2022-08-09T09:48:12.844Z,29.5
2022-08-09T09:54:00.993Z,29.5
2022-08-09T09:59:16.126Z,29.6
2022-08-09T10:04:44.351Z,29.6
2022-08-09T10:10:14.967Z,29.6
2022-08-09T10:16:08.904Z,29.6
2022-08-09T10:21:16.171Z,29.7
2022-08-09T10:26:46.908Z,29.7
2022-08-09T10:32:38.759Z,29.7
2022-08-09T10:37:48.482Z,29.7
2022-08-09T10:43:18.642Z,29.7
2022-08-09T10:48:52.298Z,29.7
2022-08-09T10:54:20.536Z,29.8
2022-08-09T10:59:57.360Z,29.7
2022-08-09T11:05:25.488Z,29.8
2022-08-09T11:10:54.841Z,29.8
2022-08-09T11:16:35.137Z,29.8
2022-08-09T11:21:55.278Z,29.8
2022-08-09T11:27:52.798Z,29.8
2022-08-09T11:32:54.620Z,29.8
2022-08-09T11:38:28.509Z,29.9
2022-08-09T11:43:55.838Z,29.9
2022-08-09T11:49:28.325Z,29.9
2022-08-09T11:54:57.051Z,29.9
2022-08-09T12:00:28.080Z,29.9
2022-08-09T12:05:57.774Z,29.9
2022-08-09T12:11:28.724Z,30
2022-08-09T12:16:59.539Z,30
2022-08-09T12:22:30.573Z,30
2022-08-09T12:29:14.401Z,30
2022-08-09T12:33:51.083Z,29.8
2022-08-09T12:39:04.304Z,29.7
2022-08-09T12:44:37.483Z,29.2
2022-08-09T12:50:03.173Z,29.1
2022-08-09T12:56:15.442Z,29
2022-08-09T13:01:05.147Z,29.1
2022-08-09T13:06:35.938Z,28.8
2022-08-09T13:12:06.755Z,29
2022-08-09T13:18:03.779Z,29.1
2022-08-09T13:24:16.694Z,29.4
2022-08-09T13:28:39.599Z,29.2
2022-08-09T13:34:08.201Z,29.4
2022-08-09T13:41:55.683Z,29.5
2022-08-09T13:45:12.321Z,29.3
2022-08-09T13:50:39.969Z,29.4
2022-08-09T13:56:12.028Z,29.3
2022-08-09T14:02:01.269Z,29.5
2022-08-09T14:07:12.355Z,29.5
2022-08-09T14:12:42.445Z,29.6
2022-08-09T14:18:27.406Z,29.7
2022-08-09T14:23:53.602Z,29.6
2022-08-09T14:30:04.393Z,29.7
